• Join FlightAware (Why Join?)
  • Login
  • US Flag 
07:17AM EDT


 

Airport Tracker/Info


-or-


 

Live Flight TrackerFlight Track Log ✈ N487SR ✈ 28-Jun-2013 ✈ KUIN - KALO

Flight Track Log - Related Links

Times and Time Zones

All times are in EDT time to prevent confusion due to time zone crossing. See the N487SR flight status page for this flight to view local times or setup timezone preferences in your user account.

Time Position Orientation Groundspeed Altitude Reporting Facility
EDT Latitude Longitude Course Direction KTS MPH feet Rate Location/Type
01:10PM 40.0822 -91.2639 343° North 140 161 3,400  Level Kansas City Center
01:11PM 40.1147 -91.2783 341° North 129 148 4,000 480 Climbing Kansas City Center
01:12PM 40.1464 -91.2931 340° North 124 143 4,500 480 Climbing Kansas City Center
01:13PM 40.1831 -91.3083 342° North 120 138 5,000 240 Climbing Kansas City Center
01:14PM 40.1512 -91.2732 341° North  Level FlightAware Approximate
01:14PM 40.2142 -91.3242 339° North 119 137 5,000  Level Kansas City Center
01:15PM 40.2514 -91.3397 342° North 130 150 5,000 -60 Level Kansas City Center
01:16PM 40.2892 -91.3561 342° North 139 160 4,900  Descending Kansas City Center
01:17PM 40.3317 -91.3758 341° North 138 159 5,000  Climbing Kansas City Center
01:18PM 40.3681 -91.3911 342° North 137 158 5,000  Level Kansas City Center
01:19PM 40.4039 -91.4075 341° North 139 160 5,000 -60 Level Kansas City Center
01:20PM 40.4406 -91.4236 342° North 139 160 4,900 -60 Descending Kansas City Center
01:21PM 40.4756 -91.4406 340° North 137 158 4,900  Level Kansas City Center
01:22PM 40.5181 -91.4589 342° North 134 154 4,900  Level Kansas City Center
01:23PM 40.5567 -91.4744 343° North 141 162 4,900  Level Kansas City Center
01:24PM 40.5939 -91.4925 340° North 144 166 5,000  Climbing Kansas City Center
01:25PM 40.6317 -91.5072 344° North 144 166 5,000  Level Chicago Center
01:26PM 40.6667 -91.5236 340° North 140 161 5,000 120 Level Chicago Center
01:27PM 40.7067 -91.5436 339° North 133 153 5,300 300 Climbing Chicago Center
01:28PM 40.7350 -91.5561 342° North 118 136 5,700 300 Climbing Chicago Center
01:30PM 40.7644 -91.5694 341° North 113 130 6,000 120 Climbing Chicago Center
01:31PM 40.7942 -91.5828 341° North 114 131 6,000  Level Chicago Center
01:32PM 40.8289 -91.5978 342° North 124 143 6,000  Level Chicago Center
01:33PM 40.8714 -91.6164 342° North 130 150 6,000  Level Chicago Center
01:34PM 40.9058 -91.6325 341° North 132 152 6,000  Level Chicago Center
01:35PM 40.9394 -91.6481 341° North 131 151 6,000  Level Chicago Center
01:36PM 40.9767 -91.6650 341° North 136 157 6,000  Level Chicago Center
01:37PM 41.0186 -91.6847 340° North 135 155 6,000  Level Chicago Center
01:38PM 41.0525 -91.7008 340° North 133 153 6,000  Level Chicago Center
01:39PM 41.0867 -91.7150 343° North 131 151 6,000  Level Chicago Center
01:40PM 41.1217 -91.7317 340° North 134 154 6,000  Level Chicago Center
01:41PM 41.1569 -91.7483 340° North 136 157 6,000  Level Chicago Center
01:42PM 41.1997 -91.7672 342° North 137 158 6,000  Level Chicago Center
01:43PM 41.2350 -91.7822 342° North 136 157 6,000  Level Chicago Center
01:44PM 41.2694 -91.7992 340° North 135 155 6,000  Level Chicago Center
01:45PM 41.3044 -91.8147 342° North 136 157 6,000  Level Chicago Center
01:46PM 41.3481 -91.8342 341° North 138 159 6,000  Level Chicago Center
01:47PM 41.3819 -91.8481 343° North 132 152 6,000  Level Chicago Center
01:48PM 41.4161 -91.8642 341° North 132 152 6,000  Level Chicago Center
01:49PM 41.4492 -91.8811 339° North 129 148 6,000  Level Chicago Center
01:50PM 41.4822 -91.8950 343° North 127 146 6,000  Level Chicago Center
01:51PM 41.5244 -91.9136 342° North 132 152 6,000  Level Chicago Center
01:52PM 41.5589 -91.9314 339° North 134 154 6,000  Level Chicago Center
01:53PM 41.5931 -91.9481 340° North 133 153 6,000  Level Chicago Center
01:54PM 41.6272 -91.9608 344° North 131 151 6,000  Level Chicago Center
01:55PM 41.6603 -91.9772 340° North 130 150 6,000  Level Chicago Center
01:56PM 41.7022 -91.9964 341° North 132 152 6,000  Level Chicago Center
01:57PM 41.7383 -92.0119 342° North 135 155 6,000  Level Chicago Center
01:58PM 41.7725 -92.0286 340° North 134 154 6,000  Level Chicago Center
02:00PM 41.8139 -92.0483 340° North 132 152 6,000  Level Chicago Center
02:01PM 41.8472 -92.0633 341° North 131 151 6,000  Level Chicago Center
02:02PM 41.8814 -92.0781 342° North 129 148 6,000  Level Chicago Center
02:03PM 41.9156 -92.0936 341° North 131 151 6,000  Level Chicago Center
02:04PM 41.9506 -92.1097 341° North 132 152 6,000  Level Chicago Center
02:05PM 41.9919 -92.1300 340° North 132 152 6,000  Level Chicago Center
02:06PM 42.0264 -92.1475 339° North 133 153 6,000  Level Chicago Center
02:07PM 42.0622 -92.1636 342° North 134 154 6,000 -60 Level Chicago Center
02:08PM 42.0967 -92.1797 341° North 134 154 5,900 -240 Descending Chicago Center
02:09PM 42.1328 -92.1944 343° North 135 155 5,600 -300 Descending Chicago Center
02:10PM 42.1761 -92.2167 339° North 137 158 5,300 -300 Descending Chicago Center
02:11PM 42.2117 -92.2344 340° North 137 158 5,000 -300 Descending Chicago Center
02:12PM 42.2486 -92.2506 342° North 138 159 4,700 -300 Descending Chicago Center
02:13PM 42.2853 -92.2678 341° North 139 160 4,400 -420 Descending Chicago Center
02:14PM 42.3244 -92.2778 349° North 142 163 3,900 -480 Descending Chicago Center
02:15PM 42.3694 -92.2867 352° North 141 162 3,500 -480 Descending Chicago Center
02:16PM 42.4056 -92.2950 350° North 137 158 3,000 -480 Descending Chicago Center
02:17PM 42.4428 -92.3053 348° North 136 157 2,600 -480 Descending Chicago Center
02:18PM 42.4792 -92.3175 346° North 136 157 2,100 -360 Descending Chicago Center
02:19PM 42.5117 -92.3289 346° North 131 151 1,900 -300 Descending Chicago Center
02:20PM 42.5339 -92.3569 317° Northwest 109 125 1,500 -240 Descending Chicago Center
02:21PM 42.5481 -92.3869 303° West 106 122 1,400 -120 Descending Chicago Center
02:23PM 42.5500 -92.4000 340° North  Level FlightAware Approximate
02:30PM 42.5571 -92.4003 340° North  Level Estimated
02:31PM 42.5500 -92.4000 340° North  Level FlightAware Approximate